sensor_id;sensor_type;location;lat;lon;timestamp;pressure;altitude;pressure_sealevel;temperature;humidity
49843;BME280;55559;48.898;9.184;2023-02-20T00:01:31;99546.47;;;8.19;100.00
49843;BME280;55559;48.898;9.184;2023-02-20T00:03:59;99537.28;;;8.10;100.00
49843;BME280;55559;48.898;9.184;2023-02-20T00:06:26;99539.84;;;8.12;100.00
49843;BME280;55559;48.898;9.184;2023-02-20T00:08:54;99540.31;;;8.04;100.00
49843;BME280;55559;48.898;9.184;2023-02-20T00:11:21;99528.78;;;8.05;100.00
49843;BME280;55559;48.898;9.184;2023-02-20T00:13:49;99525.34;;;7.89;100.00
49843;BME280;55559;48.898;9.184;2023-02-20T00:16:17;99530.25;;;7.80;100.00
49843;BME280;55559;48.898;9.184;2023-02-20T00:18:45;99530.75;;;7.73;100.00
49843;BME280;55559;48.898;9.184;2023-02-20T00:21:12;99527.44;;;7.69;100.00
49843;BME280;55559;48.898;9.184;2023-02-20T00:23:40;99523.16;;;7.67;100.00
49843;BME280;55559;48.898;9.184;2023-02-20T00:26:08;99528.06;;;7.58;100.00
49843;BME280;55559;48.898;9.184;2023-02-20T00:28:37;99528.94;;;7.59;100.00
49843;BME280;55559;48.898;9.184;2023-02-20T00:31:05;99533.75;;;7.52;100.00
49843;BME280;55559;48.898;9.184;2023-02-20T00:33:36;99538.16;;;7.52;100.00
49843;BME280;55559;48.898;9.184;2023-02-20T00:36:05;99546.00;;;7.53;100.00
49843;BME280;55559;48.898;9.184;2023-02-20T00:38:32;99547.56;;;7.57;100.00
49843;BME280;55559;48.898;9.184;2023-02-20T00:41:00;99552.06;;;7.55;100.00
49843;BME280;55559;48.898;9.184;2023-02-20T00:43:28;99555.28;;;7.60;100.00
49843;BME280;55559;48.898;9.184;2023-02-20T00:45:56;99558.13;;;7.57;100.00
49843;BME280;55559;48.898;9.184;2023-02-20T00:48:23;99560.78;;;7.57;100.00
49843;BME280;55559;48.898;9.184;2023-02-20T00:51:12;99555.41;;;7.59;100.00
49843;BME280;55559;48.898;9.184;2023-02-20T00:53:40;99563.44;;;7.57;100.00
49843;BME280;55559;48.898;9.184;2023-02-20T00:56:07;99553.94;;;7.53;100.00
49843;BME280;55559;48.898;9.184;2023-02-20T00:58:35;99557.66;;;7.51;100.00
49843;BME280;55559;48.898;9.184;2023-02-20T01:01:02;99559.63;;;7.47;100.00
49843;BME280;55559;48.898;9.184;2023-02-20T01:03:30;99553.84;;;7.40;100.00
49843;BME280;55559;48.898;9.184;2023-02-20T01:05:57;99556.91;;;7.33;100.00
49843;BME280;55559;48.898;9.184;2023-02-20T01:08:26;99559.66;;;7.31;100.00
49843;BME280;55559;48.898;9.184;2023-02-20T01:10:55;99562.25;;;7.17;100.00
49843;BME280;55559;48.898;9.184;2023-02-20T01:13:22;99557.13;;;7.14;100.00
49843;BME280;55559;48.898;9.184;2023-02-20T01:15:50;99553.91;;;7.08;100.00
49843;BME280;55559;48.898;9.184;2023-02-20T01:18:17;99545.38;;;7.03;100.00
49843;BME280;55559;48.898;9.184;2023-02-20T01:20:45;99536.94;;;6.97;100.00
49843;BME280;55559;48.898;9.184;2023-02-20T01:23:12;99549.91;;;6.85;100.00
49843;BME280;55559;48.898;9.184;2023-02-20T01:25:41;99550.66;;;6.87;100.00
49843;BME280;55559;48.898;9.184;2023-02-20T01:28:09;99554.00;;;6.75;100.00
49843;BME280;55559;48.898;9.184;2023-02-20T01:30:36;99547.38;;;6.68;100.00
49843;BME280;55559;48.898;9.184;2023-02-20T01:33:03;99546.56;;;6.66;100.00
49843;BME280;55559;48.898;9.184;2023-02-20T01:35:31;99542.56;;;6.59;100.00
49843;BME280;55559;48.898;9.184;2023-02-20T01:37:59;99544.78;;;6.50;100.00
49843;BME280;55559;48.898;9.184;2023-02-20T01:40:32;99539.50;;;6.50;100.00
49843;BME280;55559;48.898;9.184;2023-02-20T01:43:02;99535.84;;;6.53;100.00
49843;BME280;55559;48.898;9.184;2023-02-20T01:45:34;99545.66;;;6.51;100.00
49843;BME280;55559;48.898;9.184;2023-02-20T01:48:03;99542.72;;;6.40;100.00
49843;BME280;55559;48.898;9.184;2023-02-20T01:50:35;99532.84;;;6.43;100.00
49843;BME280;55559;48.898;9.184;2023-02-20T01:53:06;99529.69;;;6.37;100.00
49843;BME280;55559;48.898;9.184;2023-02-20T01:55:38;99534.88;;;6.38;100.00
49843;BME280;55559;48.898;9.184;2023-02-20T01:58:15;99527.22;;;6.33;100.00
49843;BME280;55559;48.898;9.184;2023-02-20T02:00:44;99529.09;;;6.31;100.00
49843;BME280;55559;48.898;9.184;2023-02-20T02:03:13;99530.00;;;6.30;100.00
49843;BME280;55559;48.898;9.184;2023-02-20T02:05:45;99527.81;;;6.23;100.00
49843;BME280;55559;48.898;9.184;2023-02-20T02:08:14;99529.75;;;6.19;100.00
49843;BME280;55559;48.898;9.184;2023-02-20T02:10:47;99519.88;;;6.23;100.00
49843;BME280;55559;48.898;9.184;2023-02-20T02:13:19;99522.06;;;6.14;100.00
49843;BME280;55559;48.898;9.184;2023-02-20T02:15:50;99519.75;;;6.08;100.00
49843;BME280;55559;48.898;9.184;2023-02-20T02:18:38;99524.50;;;6.02;100.00
49843;BME280;55559;48.898;9.184;2023-02-20T02:21:27;99528.94;;;6.01;100.00
49843;BME280;55559;48.898;9.184;2023-02-20T02:27:42;99522.19;;;5.95;100.00
49843;BME280;55559;48.898;9.184;2023-02-20T02:36:38;99529.81;;;5.84;100.00
49843;BME280;55559;48.898;9.184;2023-02-20T02:39:15;99534.47;;;5.79;100.00
49843;BME280;55559;48.898;9.184;2023-02-20T02:41:53;99532.91;;;5.92;100.00
49843;BME280;55559;48.898;9.184;2023-02-20T02:44:29;99532.28;;;5.87;100.00
49843;BME280;55559;48.898;9.184;2023-02-20T02:47:02;99521.97;;;5.83;100.00
49843;BME280;55559;48.898;9.184;2023-02-20T02:49:34;99525.78;;;5.77;100.00
49843;BME280;55559;48.898;9.184;2023-02-20T02:52:05;99517.88;;;5.77;100.00
49843;BME280;55559;48.898;9.184;2023-02-20T02:54:34;99510.25;;;5.71;100.00
49843;BME280;55559;48.898;9.184;2023-02-20T02:57:20;99513.13;;;5.84;100.00
49843;BME280;55559;48.898;9.184;2023-02-20T02:59:53;99499.84;;;5.85;100.00
49843;BME280;55559;48.898;9.184;2023-02-20T03:02:24;99508.28;;;5.92;100.00
49843;BME280;55559;48.898;9.184;2023-02-20T03:04:57;99508.97;;;5.95;100.00
49843;BME280;55559;48.898;9.184;2023-02-20T03:07:28;99509.91;;;5.94;100.00
49843;BME280;55559;48.898;9.184;2023-02-20T03:10:00;99508.28;;;5.92;100.00
49843;BME280;55559;48.898;9.184;2023-02-20T03:12:36;99509.28;;;5.89;100.00
49843;BME280;55559;48.898;9.184;2023-02-20T03:15:09;99509.69;;;5.99;100.00
49843;BME280;55559;48.898;9.184;2023-02-20T03:18:03;99511.78;;;5.92;100.00
49843;BME280;55559;48.898;9.184;2023-02-20T03:20:36;99505.91;;;5.87;100.00
49843;BME280;55559;48.898;9.184;2023-02-20T03:23:09;99506.97;;;5.83;100.00
49843;BME280;55559;48.898;9.184;2023-02-20T03:25:41;99504.25;;;5.85;100.00
49843;BME280;55559;48.898;9.184;2023-02-20T03:28:16;99506.28;;;5.80;100.00
49843;BME280;55559;48.898;9.184;2023-02-20T03:30:48;99510.13;;;5.74;100.00
49843;BME280;55559;48.898;9.184;2023-02-20T03:33:20;99517.06;;;5.75;100.00
49843;BME280;55559;48.898;9.184;2023-02-20T03:36:10;99509.09;;;5.76;100.00
49843;BME280;55559;48.898;9.184;2023-02-20T03:38:59;99523.69;;;5.84;100.00
49843;BME280;55559;48.898;9.184;2023-02-20T03:41:46;99511.88;;;5.91;100.00
49843;BME280;55559;48.898;9.184;2023-02-20T03:44:33;99517.81;;;5.94;100.00
49843;BME280;55559;48.898;9.184;2023-02-20T03:47:03;99511.31;;;6.02;100.00
49843;BME280;55559;48.898;9.184;2023-02-20T03:49:38;99510.84;;;6.11;100.00
49843;BME280;55559;48.898;9.184;2023-02-20T03:52:23;99505.63;;;6.25;100.00
49843;BME280;55559;48.898;9.184;2023-02-20T03:54:52;99505.56;;;6.27;100.00
49843;BME280;55559;48.898;9.184;2023-02-20T03:57:23;99503.44;;;6.33;100.00
49843;BME280;55559;48.898;9.184;2023-02-20T03:59:54;99498.66;;;6.40;100.00
49843;BME280;55559;48.898;9.184;2023-02-20T04:02:27;99499.09;;;6.48;100.00
49843;BME280;55559;48.898;9.184;2023-02-20T04:05:01;99493.31;;;6.58;100.00
49843;BME280;55559;48.898;9.184;2023-02-20T04:07:35;99486.06;;;6.61;100.00
49843;BME280;55559;48.898;9.184;2023-02-20T04:10:06;99490.72;;;6.72;100.00
49843;BME280;55559;48.898;9.184;2023-02-20T04:12:39;99477.69;;;6.69;100.00
49843;BME280;55559;48.898;9.184;2023-02-20T04:15:10;99479.66;;;6.81;100.00
49843;BME280;55559;48.898;9.184;2023-02-20T04:17:41;99483.38;;;6.77;100.00
49843;BME280;55559;48.898;9.184;2023-02-20T04:20:12;99476.59;;;6.73;100.00
49843;BME280;55559;48.898;9.184;2023-02-20T04:22:49;99473.94;;;6.57;100.00
49843;BME280;55559;48.898;9.184;2023-02-20T04:25:39;99471.03;;;6.46;100.00
49843;BME280;55559;48.898;9.184;2023-02-20T04:28:10;99469.09;;;6.33;100.00
49843;BME280;55559;48.898;9.184;2023-02-20T04:30:49;99483.06;;;6.20;100.00
49843;BME280;55559;48.898;9.184;2023-02-20T04:33:18;99481.78;;;6.11;100.00
49843;BME280;55559;48.898;9.184;2023-02-20T04:35:47;99475.97;;;6.04;100.00
49843;BME280;55559;48.898;9.184;2023-02-20T04:38:15;99474.66;;;5.95;100.00
49843;BME280;55559;48.898;9.184;2023-02-20T04:40:43;99482.13;;;5.87;100.00
49843;BME280;55559;48.898;9.184;2023-02-20T04:43:11;99483.56;;;5.77;100.00
49843;BME280;55559;48.898;9.184;2023-02-20T04:45:39;99488.38;;;5.69;100.00
49843;BME280;55559;48.898;9.184;2023-02-20T04:48:07;99495.78;;;5.62;100.00
49843;BME280;55559;48.898;9.184;2023-02-20T04:50:34;99497.34;;;5.49;100.00
49843;BME280;55559;48.898;9.184;2023-02-20T04:53:03;99505.63;;;5.41;100.00
49843;BME280;55559;48.898;9.184;2023-02-20T04:55:30;99507.50;;;5.39;100.00
49843;BME280;55559;48.898;9.184;2023-02-20T04:58:03;99494.88;;;5.28;100.00
49843;BME280;55559;48.898;9.184;2023-02-20T05:00:46;99504.53;;;5.28;100.00
49843;BME280;55559;48.898;9.184;2023-02-20T05:03:13;99501.06;;;5.27;100.00
49843;BME280;55559;48.898;9.184;2023-02-20T05:05:41;99494.94;;;5.27;100.00
49843;BME280;55559;48.898;9.184;2023-02-20T05:08:08;99495.84;;;5.26;100.00
49843;BME280;55559;48.898;9.184;2023-02-20T05:10:36;99496.63;;;5.28;100.00
49843;BME280;55559;48.898;9.184;2023-02-20T05:13:05;99501.06;;;5.27;100.00
49843;BME280;55559;48.898;9.184;2023-02-20T05:15:33;99501.91;;;5.28;100.00
49843;BME280;55559;48.898;9.184;2023-02-20T05:18:00;99495.16;;;5.22;100.00
49843;BME280;55559;48.898;9.184;2023-02-20T05:20:28;99500.84;;;5.32;100.00
49843;BME280;55559;48.898;9.184;2023-02-20T05:23:09;99492.94;;;5.32;100.00
49843;BME280;55559;48.898;9.184;2023-02-20T05:25:36;99490.38;;;5.30;100.00
49843;BME280;55559;48.898;9.184;2023-02-20T05:28:05;99487.72;;;5.30;100.00
49843;BME280;55559;48.898;9.184;2023-02-20T05:30:33;99492.94;;;5.32;100.00
49843;BME280;55559;48.898;9.184;2023-02-20T05:33:01;99495.56;;;5.32;100.00
49843;BME280;55559;48.898;9.184;2023-02-20T05:35:28;99498.44;;;5.27;100.00
49843;BME280;55559;48.898;9.184;2023-02-20T05:37:55;99492.38;;;5.25;100.00
49843;BME280;55559;48.898;9.184;2023-02-20T05:40:23;99496.97;;;5.21;100.00
49843;BME280;55559;48.898;9.184;2023-02-20T05:42:50;99502.47;;;5.17;100.00
49843;BME280;55559;48.898;9.184;2023-02-20T05:45:19;99491.38;;;5.10;100.00
49843;BME280;55559;48.898;9.184;2023-02-20T05:47:46;99504.41;;;5.13;100.00
49843;BME280;55559;48.898;9.184;2023-02-20T05:50:14;99494.06;;;5.09;100.00
49843;BME280;55559;48.898;9.184;2023-02-20T05:52:41;99495.88;;;5.08;100.00
49843;BME280;55559;48.898;9.184;2023-02-20T05:55:09;99506.72;;;5.02;100.00
49843;BME280;55559;48.898;9.184;2023-02-20T05:57:37;99501.44;;;5.02;100.00
49843;BME280;55559;48.898;9.184;2023-02-20T06:00:05;99488.19;;;5.03;100.00
49843;BME280;55559;48.898;9.184;2023-02-20T06:02:39;99487.25;;;5.05;100.00
49843;BME280;55559;48.898;9.184;2023-02-20T06:05:07;99491.50;;;5.07;100.00
49843;BME280;55559;48.898;9.184;2023-02-20T06:07:34;99497.72;;;5.06;100.00
49843;BME280;55559;48.898;9.184;2023-02-20T06:10:02;99491.03;;;4.99;100.00
49843;BME280;55559;48.898;9.184;2023-02-20T06:12:29;99493.13;;;4.92;100.00
49843;BME280;55559;48.898;9.184;2023-02-20T06:14:57;99496.84;;;4.88;100.00
49843;BME280;55559;48.898;9.184;2023-02-20T06:17:24;99493.72;;;4.80;100.00
49843;BME280;55559;48.898;9.184;2023-02-20T06:19:53;99501.84;;;4.75;100.00
49843;BME280;55559;48.898;9.184;2023-02-20T06:22:21;99504.88;;;4.68;100.00
49843;BME280;55559;48.898;9.184;2023-02-20T06:24:48;99506.81;;;4.64;100.00
49843;BME280;55559;48.898;9.184;2023-02-20T06:27:16;99507.78;;;4.61;100.00
49843;BME280;55559;48.898;9.184;2023-02-20T06:29:46;99500.53;;;4.66;100.00
49843;BME280;55559;48.898;9.184;2023-02-20T06:32:14;99513.47;;;4.71;100.00
49843;BME280;55559;48.898;9.184;2023-02-20T06:34:42;99514.41;;;4.70;100.00
49843;BME280;55559;48.898;9.184;2023-02-20T06:37:12;99510.34;;;4.63;100.00
49843;BME280;55559;48.898;9.184;2023-02-20T06:39:39;99520.13;;;4.61;100.00
49843;BME280;55559;48.898;9.184;2023-02-20T06:42:07;99511.91;;;4.67;100.00
49843;BME280;55559;48.898;9.184;2023-02-20T06:44:35;99517.97;;;4.69;100.00
49843;BME280;55559;48.898;9.184;2023-02-20T06:47:03;99514.19;;;4.75;100.00
49843;BME280;55559;48.898;9.184;2023-02-20T06:49:33;99519.38;;;4.76;100.00
49843;BME280;55559;48.898;9.184;2023-02-20T06:52:01;99518.16;;;4.83;100.00
49843;BME280;55559;48.898;9.184;2023-02-20T06:54:30;99528.53;;;4.87;100.00
49843;BME280;55559;48.898;9.184;2023-02-20T06:56:58;99526.94;;;4.84;100.00
49843;BME280;55559;48.898;9.184;2023-02-20T06:59:26;99525.91;;;4.87;100.00
49843;BME280;55559;48.898;9.184;2023-02-20T07:01:53;99522.34;;;4.88;100.00
49843;BME280;55559;48.898;9.184;2023-02-20T07:04:22;99523.63;;;4.98;100.00
49843;BME280;55559;48.898;9.184;2023-02-20T07:06:51;99522.59;;;5.00;100.00
49843;BME280;55559;48.898;9.184;2023-02-20T07:09:18;99528.41;;;5.07;100.00
49843;BME280;55559;48.898;9.184;2023-02-20T07:11:48;99526.66;;;5.25;100.00
49843;BME280;55559;48.898;9.184;2023-02-20T07:14:16;99526.44;;;5.30;100.00
49843;BME280;55559;48.898;9.184;2023-02-20T07:16:43;99536.59;;;5.37;100.00
49843;BME280;55559;48.898;9.184;2023-02-20T07:19:11;99523.31;;;5.39;100.00
49843;BME280;55559;48.898;9.184;2023-02-20T07:21:39;99536.22;;;5.45;100.00
49843;BME280;55559;48.898;9.184;2023-02-20T07:24:06;99531.63;;;5.49;100.00
49843;BME280;55559;48.898;9.184;2023-02-20T07:26:34;99525.94;;;5.56;100.00
49843;BME280;55559;48.898;9.184;2023-02-20T07:29:06;99524.78;;;5.62;100.00
49843;BME280;55559;48.898;9.184;2023-02-20T07:31:34;99535.81;;;5.70;100.00
49843;BME280;55559;48.898;9.184;2023-02-20T07:34:01;99539.13;;;5.74;100.00
49843;BME280;55559;48.898;9.184;2023-02-20T07:36:35;99532.53;;;5.83;100.00
49843;BME280;55559;48.898;9.184;2023-02-20T07:39:03;99540.81;;;5.92;100.00
49843;BME280;55559;48.898;9.184;2023-02-20T07:41:32;99542.91;;;6.03;100.00
49843;BME280;55559;48.898;9.184;2023-02-20T07:44:03;99538.25;;;6.08;100.00
49843;BME280;55559;48.898;9.184;2023-02-20T07:46:32;99532.63;;;6.14;100.00
49843;BME280;55559;48.898;9.184;2023-02-20T07:49:00;99520.88;;;6.20;100.00
49843;BME280;55559;48.898;9.184;2023-02-20T07:51:28;99515.81;;;6.33;100.00
49843;BME280;55559;48.898;9.184;2023-02-20T07:53:55;99518.00;;;6.41;100.00
49843;BME280;55559;48.898;9.184;2023-02-20T07:56:23;99520.16;;;6.50;100.00
49843;BME280;55559;48.898;9.184;2023-02-20T07:58:50;99504.91;;;6.55;100.00
49843;BME280;55559;48.898;9.184;2023-02-20T08:01:18;99515.81;;;6.65;100.00
49843;BME280;55559;48.898;9.184;2023-02-20T08:03:47;99505.75;;;6.72;100.00
49843;BME280;55559;48.898;9.184;2023-02-20T08:06:16;99500.19;;;6.76;100.00
49843;BME280;55559;48.898;9.184;2023-02-20T08:08:47;99497.63;;;6.91;100.00
49843;BME280;55559;48.898;9.184;2023-02-20T08:11:15;99498.97;;;6.98;100.00
49843;BME280;55559;48.898;9.184;2023-02-20T08:13:43;99492.19;;;7.08;100.00
49843;BME280;55559;48.898;9.184;2023-02-20T08:16:11;99494.56;;;7.13;100.00
49843;BME280;55559;48.898;9.184;2023-02-20T08:18:39;99490.91;;;7.15;100.00
49843;BME280;55559;48.898;9.184;2023-02-20T08:21:08;99485.25;;;7.21;100.00
49843;BME280;55559;48.898;9.184;2023-02-20T08:23:35;99482.34;;;7.26;100.00
49843;BME280;55559;48.898;9.184;2023-02-20T08:26:03;99493.59;;;7.30;100.00
49843;BME280;55559;48.898;9.184;2023-02-20T08:28:31;99489.44;;;7.40;100.00
49843;BME280;55559;48.898;9.184;2023-02-20T08:30:59;99496.28;;;7.44;100.00
49843;BME280;55559;48.898;9.184;2023-02-20T08:33:26;99494.03;;;7.52;100.00
49843;BME280;55559;48.898;9.184;2023-02-20T08:35:54;99499.25;;;7.68;100.00
49843;BME280;55559;48.898;9.184;2023-02-20T08:38:27;99493.59;;;7.74;100.00
49843;BME280;55559;48.898;9.184;2023-02-20T08:40:55;99485.56;;;7.76;100.00
49843;BME280;55559;48.898;9.184;2023-02-20T08:43:23;99475.44;;;7.82;100.00
49843;BME280;55559;48.898;9.184;2023-02-20T08:45:51;99484.78;;;7.88;100.00
49843;BME280;55559;48.898;9.184;2023-02-20T08:48:18;99483.56;;;7.94;100.00
49843;BME280;55559;48.898;9.184;2023-02-20T08:50:46;99480.63;;;8.13;100.00
49843;BME280;55559;48.898;9.184;2023-02-20T08:53:14;99482.22;;;8.15;100.00
49843;BME280;55559;48.898;9.184;2023-02-20T08:55:43;99480.03;;;8.22;100.00
49843;BME280;55559;48.898;9.184;2023-02-20T08:58:10;99481.91;;;8.34;100.00
49843;BME280;55559;48.898;9.184;2023-02-20T09:00:38;99482.94;;;8.46;100.00
49843;BME280;55559;48.898;9.184;2023-02-20T09:03:05;99475.06;;;8.59;100.00
49843;BME280;55559;48.898;9.184;2023-02-20T09:05:34;99480.66;;;8.82;100.00
49843;BME280;55559;48.898;9.184;2023-02-20T09:08:01;99479.53;;;8.86;100.00
49843;BME280;55559;48.898;9.184;2023-02-20T09:10:29;99466.81;;;8.91;100.00
49843;BME280;55559;48.898;9.184;2023-02-20T09:12:58;99462.06;;;9.09;100.00
49843;BME280;55559;48.898;9.184;2023-02-20T09:15:26;99467.53;;;9.20;100.00
49843;BME280;55559;48.898;9.184;2023-02-20T09:17:54;99462.34;;;9.31;100.00
49843;BME280;55559;48.898;9.184;2023-02-20T09:20:22;99462.25;;;9.46;100.00
49843;BME280;55559;48.898;9.184;2023-02-20T09:22:50;99465.03;;;9.57;100.00
49843;BME280;55559;48.898;9.184;2023-02-20T09:25:18;99448.34;;;9.81;100.00
49843;BME280;55559;48.898;9.184;2023-02-20T09:27:45;99447.66;;;10.03;100.00
49843;BME280;55559;48.898;9.184;2023-02-20T09:30:17;99448.28;;;10.32;100.00
49843;BME280;55559;48.898;9.184;2023-02-20T09:32:46;99442.63;;;10.37;100.00
49843;BME280;55559;48.898;9.184;2023-02-20T09:35:16;99440.47;;;10.42;100.00
49843;BME280;55559;48.898;9.184;2023-02-20T09:37:45;99442.50;;;10.38;100.00
49843;BME280;55559;48.898;9.184;2023-02-20T09:40:14;99437.25;;;10.74;100.00
49843;BME280;55559;48.898;9.184;2023-02-20T09:42:48;99433.44;;;10.78;100.00
49843;BME280;55559;48.898;9.184;2023-02-20T09:45:24;99431.25;;;10.59;100.00
49843;BME280;55559;48.898;9.184;2023-02-20T09:48:02;99428.22;;;10.76;100.00
49843;BME280;55559;48.898;9.184;2023-02-20T09:50:35;99435.34;;;10.52;100.00
49843;BME280;55559;48.898;9.184;2023-02-20T09:53:06;99426.50;;;10.75;100.00
49843;BME280;55559;48.898;9.184;2023-02-20T09:55:39;99434.22;;;10.43;100.00
49843;BME280;55559;48.898;9.184;2023-02-20T09:58:17;99428.88;;;10.43;100.00
49843;BME280;55559;48.898;9.184;2023-02-20T10:00:47;99425.94;;;10.83;100.00
49843;BME280;55559;48.898;9.184;2023-02-20T10:03:29;99423.19;;;10.96;100.00
49843;BME280;55559;48.898;9.184;2023-02-20T10:06:00;99423.56;;;10.91;100.00
49843;BME280;55559;48.898;9.184;2023-02-20T10:08:29;99415.72;;;11.01;100.00
49843;BME280;55559;48.898;9.184;2023-02-20T10:11:01;99406.31;;;11.08;100.00
49843;BME280;55559;48.898;9.184;2023-02-20T10:13:48;99416.09;;;11.08;100.00
49843;BME280;55559;48.898;9.184;2023-02-20T10:16:27;99408.38;;;11.16;100.00
49843;BME280;55559;48.898;9.184;2023-02-20T10:19:07;99409.00;;;11.08;100.00
49843;BME280;55559;48.898;9.184;2023-02-20T10:21:44;99404.44;;;11.33;100.00
49843;BME280;55559;48.898;9.184;2023-02-20T10:24:24;99407.34;;;11.30;100.00
49843;BME280;55559;48.898;9.184;2023-02-20T10:26:57;99405.94;;;11.02;100.00
49843;BME280;55559;48.898;9.184;2023-02-20T10:29:31;99403.56;;;10.86;100.00
49843;BME280;55559;48.898;9.184;2023-02-20T10:32:06;99402.72;;;11.21;100.00
49843;BME280;55559;48.898;9.184;2023-02-20T10:34:39;99394.56;;;11.11;100.00
49843;BME280;55559;48.898;9.184;2023-02-20T10:37:10;99392.44;;;11.27;100.00
49843;BME280;55559;48.898;9.184;2023-02-20T10:39:47;99398.53;;;11.63;100.00
49843;BME280;55559;48.898;9.184;2023-02-20T10:42:21;99399.78;;;11.70;100.00
49843;BME280;55559;48.898;9.184;2023-02-20T10:44:52;99396.00;;;11.73;100.00
49843;BME280;55559;48.898;9.184;2023-02-20T10:47:28;99404.00;;;11.84;100.00
49843;BME280;55559;48.898;9.184;2023-02-20T10:50:02;99397.06;;;11.48;100.00
49843;BME280;55559;48.898;9.184;2023-02-20T10:52:34;99396.13;;;11.83;100.00
49843;BME280;55559;48.898;9.184;2023-02-20T10:55:08;99390.06;;;12.03;100.00
49843;BME280;55559;48.898;9.184;2023-02-20T10:57:40;99396.00;;;12.18;100.00
49843;BME280;55559;48.898;9.184;2023-02-20T11:00:12;99391.91;;;12.03;98.67
49843;BME280;55559;48.898;9.184;2023-02-20T11:02:48;99378.41;;;12.27;99.29
49843;BME280;55559;48.898;9.184;2023-02-20T11:05:21;99371.22;;;12.27;96.35
49843;BME280;55559;48.898;9.184;2023-02-20T11:07:50;99363.44;;;13.00;99.65
49843;BME280;55559;48.898;9.184;2023-02-20T11:10:17;99369.13;;;12.75;92.84
49843;BME280;55559;48.898;9.184;2023-02-20T11:12:48;99372.56;;;12.65;92.59
49843;BME280;55559;48.898;9.184;2023-02-20T11:15:19;99371.16;;;12.61;93.41
49843;BME280;55559;48.898;9.184;2023-02-20T11:17:51;99358.09;;;12.47;93.19
49843;BME280;55559;48.898;9.184;2023-02-20T11:20:41;99360.53;;;12.71;92.45
49843;BME280;55559;48.898;9.184;2023-02-20T11:23:32;99353.84;;;12.77;90.49
49843;BME280;55559;48.898;9.184;2023-02-20T11:26:21;99358.88;;;12.70;92.09
49843;BME280;55559;48.898;9.184;2023-02-20T11:28:57;99356.25;;;12.80;92.08
49843;BME280;55559;48.898;9.184;2023-02-20T11:31:26;99349.88;;;12.39;91.92
49843;BME280;55559;48.898;9.184;2023-02-20T11:33:55;99342.75;;;12.60;94.61
49843;BME280;55559;48.898;9.184;2023-02-20T11:36:24;99333.25;;;12.68;91.10
49843;BME280;55559;48.898;9.184;2023-02-20T11:38:57;99322.53;;;13.21;88.39
49843;BME280;55559;48.898;9.184;2023-02-20T11:41:27;99317.97;;;13.33;85.43
49843;BME280;55559;48.898;9.184;2023-02-20T11:44:15;99321.97;;;13.48;81.82
49843;BME280;55559;48.898;9.184;2023-02-20T11:46:43;99319.19;;;13.50;80.88
49843;BME280;55559;48.898;9.184;2023-02-20T11:49:24;99314.63;;;13.40;80.45
49843;BME280;55559;48.898;9.184;2023-02-20T11:52:06;99316.69;;;13.58;79.48
49843;BME280;55559;48.898;9.184;2023-02-20T11:55:20;99307.53;;;13.30;76.19
49843;BME280;55559;48.898;9.184;2023-02-20T11:57:48;99307.41;;;13.31;74.33
49843;BME280;55559;48.898;9.184;2023-02-20T12:00:18;99300.25;;;13.32;74.40
49843;BME280;55559;48.898;9.184;2023-02-20T12:02:51;99292.50;;;13.69;73.96
49843;BME280;55559;48.898;9.184;2023-02-20T12:05:21;99287.75;;;13.83;72.38
49843;BME280;55559;48.898;9.184;2023-02-20T12:08:02;99290.94;;;14.17;72.13
49843;BME280;55559;48.898;9.184;2023-02-20T12:10:38;99288.91;;;13.39;75.64
49843;BME280;55559;48.898;9.184;2023-02-20T12:13:11;99280.75;;;13.82;72.30
49843;BME280;55559;48.898;9.184;2023-02-20T12:15:39;99271.09;;;13.50;72.39
49843;BME280;55559;48.898;9.184;2023-02-20T12:18:39;99266.34;;;13.63;73.17
49843;BME280;55559;48.898;9.184;2023-02-20T12:21:19;99252.56;;;13.68;72.92
49843;BME280;55559;48.898;9.184;2023-02-20T12:24:06;99260.84;;;13.55;72.41
49843;BME280;55559;48.898;9.184;2023-02-20T12:26:45;99253.84;;;13.73;71.68
49843;BME280;55559;48.898;9.184;2023-02-20T12:29:26;99247.53;;;13.74;70.08
49843;BME280;55559;48.898;9.184;2023-02-20T12:35:13;99240.16;;;13.57;71.11
49843;BME280;55559;48.898;9.184;2023-02-20T12:37:57;99228.94;;;13.83;71.89
49843;BME280;55559;48.898;9.184;2023-02-20T12:40:43;99231.63;;;13.73;72.66
49843;BME280;55559;48.898;9.184;2023-02-20T12:43:24;99221.06;;;13.71;73.39
49843;BME280;55559;48.898;9.184;2023-02-20T12:46:00;99212.94;;;14.02;69.93
49843;BME280;55559;48.898;9.184;2023-02-20T12:48:40;99206.56;;;13.74;70.80
49843;BME280;55559;48.898;9.184;2023-02-20T12:51:16;99203.34;;;14.00;69.10
49843;BME280;55559;48.898;9.184;2023-02-20T12:56:52;99191.22;;;14.44;66.65
49843;BME280;55559;48.898;9.184;2023-02-20T12:59:27;99201.38;;;14.11;68.16
49843;BME280;55559;48.898;9.184;2023-02-20T13:02:00;99200.38;;;13.73;69.52
49843;BME280;55559;48.898;9.184;2023-02-20T13:04:29;99184.50;;;14.01;69.25
49843;BME280;55559;48.898;9.184;2023-02-20T13:07:03;99184.06;;;14.25;65.56
49843;BME280;55559;48.898;9.184;2023-02-20T13:09:36;99187.31;;;14.29;64.20
49843;BME280;55559;48.898;9.184;2023-02-20T13:12:10;99182.53;;;14.23;65.85
49843;BME280;55559;48.898;9.184;2023-02-20T13:14:51;99177.06;;;13.95;68.75
49843;BME280;55559;48.898;9.184;2023-02-20T13:17:30;99168.31;;;13.83;66.54
49843;BME280;55559;48.898;9.184;2023-02-20T13:20:10;99154.94;;;14.12;65.43
49843;BME280;55559;48.898;9.184;2023-02-20T13:22:41;99151.50;;;14.40;62.97
49843;BME280;55559;48.898;9.184;2023-02-20T13:25:36;99151.25;;;14.23;61.65
49843;BME280;55559;48.898;9.184;2023-02-20T13:28:21;99139.44;;;14.16;61.21
49843;BME280;55559;48.898;9.184;2023-02-20T13:31:11;99130.88;;;14.12;61.70
49843;BME280;55559;48.898;9.184;2023-02-20T13:33:40;99131.69;;;14.23;59.78
49843;BME280;55559;48.898;9.184;2023-02-20T13:36:15;99121.00;;;14.23;59.72
49843;BME280;55559;48.898;9.184;2023-02-20T13:42:01;99111.78;;;14.45;59.39
49843;BME280;55559;48.898;9.184;2023-02-20T13:44:40;99106.13;;;14.58;57.64